sensor_id;sensor_type;location;lat;lon;timestamp;pressure;altitude;pressure_sealevel;temperature;humidity
76868;BME280;66168;45.478;11.060;2023-12-04T00:01:44;101641.91;;;6.36;54.75
76868;BME280;66168;45.478;11.060;2023-12-04T00:04:12;101640.80;;;6.37;54.48
76868;BME280;66168;45.478;11.060;2023-12-04T00:06:41;101641.10;;;6.38;54.71
76868;BME280;66168;45.478;11.060;2023-12-04T00:09:08;101639.95;;;6.39;54.51
76868;BME280;66168;45.478;11.060;2023-12-04T00:11:35;101637.19;;;6.40;54.32
76868;BME280;66168;45.478;11.060;2023-12-04T00:14:02;101630.66;;;6.41;54.20
76868;BME280;66168;45.478;11.060;2023-12-04T00:16:29;101628.94;;;6.40;54.25
76868;BME280;66168;45.478;11.060;2023-12-04T00:18:56;101630.02;;;6.40;53.98
76868;BME280;66168;45.478;11.060;2023-12-04T00:21:23;101631.21;;;6.40;54.11
76868;BME280;66168;45.478;11.060;2023-12-04T00:23:50;101631.09;;;6.40;53.84
76868;BME280;66168;45.478;11.060;2023-12-04T00:26:17;101634.84;;;6.41;54.05
76868;BME280;66168;45.478;11.060;2023-12-04T00:28:44;101633.98;;;6.43;53.86
76868;BME280;66168;45.478;11.060;2023-12-04T00:31:11;101635.05;;;6.45;54.11
76868;BME280;66168;45.478;11.060;2023-12-04T00:33:37;101633.79;;;6.47;54.13
76868;BME280;66168;45.478;11.060;2023-12-04T00:36:04;101631.42;;;6.48;53.93
76868;BME280;66168;45.478;11.060;2023-12-04T00:38:31;101633.98;;;6.49;53.82
76868;BME280;66168;45.478;11.060;2023-12-04T00:40:58;101632.03;;;6.47;53.65
76868;BME280;66168;45.478;11.060;2023-12-04T00:43:25;101624.54;;;6.46;53.70
76868;BME280;66168;45.478;11.060;2023-12-04T00:45:51;101621.57;;;6.46;53.86
76868;BME280;66168;45.478;11.060;2023-12-04T00:48:18;101615.77;;;6.46;54.02
76868;BME280;66168;45.478;11.060;2023-12-04T00:50:45;101612.73;;;6.45;53.82
76868;BME280;66168;45.478;11.060;2023-12-04T00:53:12;101611.77;;;6.43;53.89
76868;BME280;66168;45.478;11.060;2023-12-04T00:55:39;101608.56;;;6.42;53.83
76868;BME280;66168;45.478;11.060;2023-12-04T00:58:06;101607.35;;;6.37;53.60
76868;BME280;66168;45.478;11.060;2023-12-04T01:00:34;101603.19;;;6.34;53.85
76868;BME280;66168;45.478;11.060;2023-12-04T01:03:01;101600.37;;;6.31;53.76
76868;BME280;66168;45.478;11.060;2023-12-04T01:05:27;101599.42;;;6.30;53.92
76868;BME280;66168;45.478;11.060;2023-12-04T01:07:55;101596.05;;;6.26;53.80
76868;BME280;66168;45.478;11.060;2023-12-04T01:10:22;101594.88;;;6.24;53.76
76868;BME280;66168;45.478;11.060;2023-12-04T01:12:49;101593.28;;;6.19;53.81
76868;BME280;66168;45.478;11.060;2023-12-04T01:15:16;101589.41;;;6.15;53.78
76868;BME280;66168;45.478;11.060;2023-12-04T01:17:43;101592.67;;;6.12;53.99
76868;BME280;66168;45.478;11.060;2023-12-04T01:20:10;101592.98;;;6.08;53.90
76868;BME280;66168;45.478;11.060;2023-12-04T01:22:37;101592.77;;;6.04;53.91
76868;BME280;66168;45.478;11.060;2023-12-04T01:25:04;101593.76;;;6.01;53.82
76868;BME280;66168;45.478;11.060;2023-12-04T01:27:31;101595.95;;;5.98;53.88
76868;BME280;66168;45.478;11.060;2023-12-04T01:29:58;101596.90;;;5.95;54.06
76868;BME280;66168;45.478;11.060;2023-12-04T01:32:25;101600.19;;;5.91;54.05
76868;BME280;66168;45.478;11.060;2023-12-04T01:34:52;101600.57;;;5.88;54.08
76868;BME280;66168;45.478;11.060;2023-12-04T01:37:19;101599.45;;;5.85;54.23
76868;BME280;66168;45.478;11.060;2023-12-04T01:39:46;101594.14;;;5.80;54.37
76868;BME280;66168;45.478;11.060;2023-12-04T01:42:13;101595.54;;;5.78;54.63
76868;BME280;66168;45.478;11.060;2023-12-04T01:44:40;101593.73;;;5.76;54.83
76868;BME280;66168;45.478;11.060;2023-12-04T01:47:07;101594.23;;;5.73;54.90
76868;BME280;66168;45.478;11.060;2023-12-04T01:49:34;101596.61;;;5.72;54.95
76868;BME280;66168;45.478;11.060;2023-12-04T01:52:02;101590.83;;;5.69;55.20
76868;BME280;66168;45.478;11.060;2023-12-04T01:54:29;101593.64;;;5.69;55.28
76868;BME280;66168;45.478;11.060;2023-12-04T01:56:57;101590.40;;;5.68;55.27
76868;BME280;66168;45.478;11.060;2023-12-04T01:59:25;101588.60;;;5.66;55.45
76868;BME280;66168;45.478;11.060;2023-12-04T02:01:52;101587.17;;;5.64;55.39
76868;BME280;66168;45.478;11.060;2023-12-04T02:04:20;101583.85;;;5.62;55.61
76868;BME280;66168;45.478;11.060;2023-12-04T02:06:47;101583.77;;;5.63;55.66
76868;BME280;66168;45.478;11.060;2023-12-04T02:09:15;101575.57;;;5.62;55.52
76868;BME280;66168;45.478;11.060;2023-12-04T02:11:43;101569.63;;;5.61;55.72
76868;BME280;66168;45.478;11.060;2023-12-04T02:14:10;101566.62;;;5.59;55.70
76868;BME280;66168;45.478;11.060;2023-12-04T02:16:39;101566.11;;;5.59;55.75
76868;BME280;66168;45.478;11.060;2023-12-04T02:19:08;101566.20;;;5.56;55.96
76868;BME280;66168;45.478;11.060;2023-12-04T02:21:36;101562.58;;;5.53;56.25
76868;BME280;66168;45.478;11.060;2023-12-04T02:24:03;101560.96;;;5.49;56.21
76868;BME280;66168;45.478;11.060;2023-12-04T02:26:39;101563.64;;;5.46;56.45
76868;BME280;66168;45.478;11.060;2023-12-04T02:29:14;101560.77;;;5.42;56.36
76868;BME280;66168;45.478;11.060;2023-12-04T02:31:43;101562.73;;;5.38;56.28
76868;BME280;66168;45.478;11.060;2023-12-04T02:34:10;101568.83;;;5.36;56.17
76868;BME280;66168;45.478;11.060;2023-12-04T02:36:41;101574.39;;;5.32;56.18
76868;BME280;66168;45.478;11.060;2023-12-04T02:39:09;101574.70;;;5.30;56.38
76868;BME280;66168;45.478;11.060;2023-12-04T02:41:36;101579.99;;;5.28;56.40
76868;BME280;66168;45.478;11.060;2023-12-04T02:44:03;101576.40;;;5.27;56.59
76868;BME280;66168;45.478;11.060;2023-12-04T02:46:30;101575.55;;;5.22;56.98
76868;BME280;66168;45.478;11.060;2023-12-04T02:48:57;101575.75;;;5.15;57.72
76868;BME280;66168;45.478;11.060;2023-12-04T02:51:24;101578.95;;;5.10;57.73
76868;BME280;66168;45.478;11.060;2023-12-04T02:53:53;101576.50;;;5.05;58.04
76868;BME280;66168;45.478;11.060;2023-12-04T02:56:20;101577.23;;;5.00;58.29
76868;BME280;66168;45.478;11.060;2023-12-04T02:58:47;101580.83;;;4.95;58.36
76868;BME280;66168;45.478;11.060;2023-12-04T03:01:13;101586.73;;;4.91;58.40
76868;BME280;66168;45.478;11.060;2023-12-04T03:03:40;101592.96;;;4.88;58.26
76868;BME280;66168;45.478;11.060;2023-12-04T03:06:08;101592.23;;;4.86;58.11
76868;BME280;66168;45.478;11.060;2023-12-04T03:08:35;101593.52;;;4.85;58.05
76868;BME280;66168;45.478;11.060;2023-12-04T03:11:02;101592.02;;;4.84;58.09
76868;BME280;66168;45.478;11.060;2023-12-04T03:13:30;101587.55;;;4.85;58.02
76868;BME280;66168;45.478;11.060;2023-12-04T03:15:57;101592.08;;;4.84;58.20
76868;BME280;66168;45.478;11.060;2023-12-04T03:18:24;101589.13;;;4.81;58.52
76868;BME280;66168;45.478;11.060;2023-12-04T03:20:53;101584.88;;;4.79;58.53
76868;BME280;66168;45.478;11.060;2023-12-04T03:23:20;101579.84;;;4.75;58.60
76868;BME280;66168;45.478;11.060;2023-12-04T03:25:47;101578.11;;;4.75;58.58
76868;BME280;66168;45.478;11.060;2023-12-04T03:28:13;101576.81;;;4.74;58.69
76868;BME280;66168;45.478;11.060;2023-12-04T03:30:42;101569.89;;;4.72;58.61
76868;BME280;66168;45.478;11.060;2023-12-04T03:33:12;101564.23;;;4.73;58.45
76868;BME280;66168;45.478;11.060;2023-12-04T03:35:39;101560.19;;;4.75;58.36
76868;BME280;66168;45.478;11.060;2023-12-04T03:38:06;101561.36;;;4.76;58.54
76868;BME280;66168;45.478;11.060;2023-12-04T03:40:33;101559.17;;;4.77;58.12
76868;BME280;66168;45.478;11.060;2023-12-04T03:43:00;101557.99;;;4.78;58.17
76868;BME280;66168;45.478;11.060;2023-12-04T03:45:27;101558.35;;;4.78;58.08
76868;BME280;66168;45.478;11.060;2023-12-04T03:47:54;101554.00;;;4.78;58.37
76868;BME280;66168;45.478;11.060;2023-12-04T03:50:21;101548.86;;;4.76;58.78
76868;BME280;66168;45.478;11.060;2023-12-04T03:52:48;101542.34;;;4.74;58.96
76868;BME280;66168;45.478;11.060;2023-12-04T03:55:15;101542.89;;;4.72;58.99
76868;BME280;66168;45.478;11.060;2023-12-04T03:57:42;101541.95;;;4.68;59.61
76868;BME280;66168;45.478;11.060;2023-12-04T04:00:11;101543.25;;;4.65;59.71
76868;BME280;66168;45.478;11.060;2023-12-04T04:02:39;101544.46;;;4.63;59.53
76868;BME280;66168;45.478;11.060;2023-12-04T04:05:06;101535.61;;;4.59;59.61
76868;BME280;66168;45.478;11.060;2023-12-04T04:07:33;101540.36;;;4.59;59.51
76868;BME280;66168;45.478;11.060;2023-12-04T04:10:01;101546.45;;;4.58;59.63
76868;BME280;66168;45.478;11.060;2023-12-04T04:12:28;101542.05;;;4.55;59.82
76868;BME280;66168;45.478;11.060;2023-12-04T04:14:54;101540.27;;;4.53;59.95
76868;BME280;66168;45.478;11.060;2023-12-04T04:17:21;101533.34;;;4.50;60.34
76868;BME280;66168;45.478;11.060;2023-12-04T04:19:49;101534.80;;;4.49;60.16
76868;BME280;66168;45.478;11.060;2023-12-04T04:22:17;101537.67;;;4.48;60.46
76868;BME280;66168;45.478;11.060;2023-12-04T04:24:43;101529.17;;;4.47;60.49
76868;BME280;66168;45.478;11.060;2023-12-04T04:27:10;101533.29;;;4.48;60.64
76868;BME280;66168;45.478;11.060;2023-12-04T04:29:37;101540.70;;;4.45;61.00
76868;BME280;66168;45.478;11.060;2023-12-04T04:32:05;101545.68;;;4.44;61.28
76868;BME280;66168;45.478;11.060;2023-12-04T04:34:32;101544.50;;;4.44;61.37
76868;BME280;66168;45.478;11.060;2023-12-04T04:36:59;101537.55;;;4.43;61.42
76868;BME280;66168;45.478;11.060;2023-12-04T04:39:27;101539.04;;;4.44;61.38
76868;BME280;66168;45.478;11.060;2023-12-04T04:41:56;101542.23;;;4.46;61.41
76868;BME280;66168;45.478;11.060;2023-12-04T04:44:23;101538.80;;;4.49;61.48
76868;BME280;66168;45.478;11.060;2023-12-04T04:46:53;101538.95;;;4.52;61.45
76868;BME280;66168;45.478;11.060;2023-12-04T04:49:20;101535.13;;;4.54;61.28
76868;BME280;66168;45.478;11.060;2023-12-04T04:51:47;101533.95;;;4.56;61.38
76868;BME280;66168;45.478;11.060;2023-12-04T04:54:14;101532.86;;;4.56;61.31
76868;BME280;66168;45.478;11.060;2023-12-04T04:56:41;101530.23;;;4.56;61.49
76868;BME280;66168;45.478;11.060;2023-12-04T04:59:08;101529.23;;;4.56;61.46
76868;BME280;66168;45.478;11.060;2023-12-04T05:01:35;101527.98;;;4.53;61.56
76868;BME280;66168;45.478;11.060;2023-12-04T05:04:03;101529.50;;;4.54;61.53
76868;BME280;66168;45.478;11.060;2023-12-04T05:06:30;101526.08;;;4.53;61.64
76868;BME280;66168;45.478;11.060;2023-12-04T05:08:57;101518.86;;;4.53;61.74
76868;BME280;66168;45.478;11.060;2023-12-04T05:11:24;101518.96;;;4.52;61.86
76868;BME280;66168;45.478;11.060;2023-12-04T05:13:51;101514.80;;;4.51;61.61
76868;BME280;66168;45.478;11.060;2023-12-04T05:16:18;101511.67;;;4.48;61.83
76868;BME280;66168;45.478;11.060;2023-12-04T05:18:45;101505.80;;;4.47;61.75
76868;BME280;66168;45.478;11.060;2023-12-04T05:21:12;101504.30;;;4.44;61.70
76868;BME280;66168;45.478;11.060;2023-12-04T05:23:40;101504.46;;;4.42;61.78
76868;BME280;66168;45.478;11.060;2023-12-04T05:26:07;101499.16;;;4.40;61.76
76868;BME280;66168;45.478;11.060;2023-12-04T05:28:34;101494.68;;;4.39;61.91
76868;BME280;66168;45.478;11.060;2023-12-04T05:31:02;101494.23;;;4.40;61.83
76868;BME280;66168;45.478;11.060;2023-12-04T05:33:29;101497.18;;;4.43;61.48
76868;BME280;66168;45.478;11.060;2023-12-04T05:35:56;101490.38;;;4.44;61.24
76868;BME280;66168;45.478;11.060;2023-12-04T05:38:23;101488.14;;;4.46;61.19
76868;BME280;66168;45.478;11.060;2023-12-04T05:40:50;101488.52;;;4.48;61.22
76868;BME280;66168;45.478;11.060;2023-12-04T05:43:17;101488.14;;;4.48;61.22
76868;BME280;66168;45.478;11.060;2023-12-04T05:45:45;101492.38;;;4.48;61.20
76868;BME280;66168;45.478;11.060;2023-12-04T05:48:14;101496.30;;;4.47;61.22
76868;BME280;66168;45.478;11.060;2023-12-04T05:50:40;101495.89;;;4.46;61.55
76868;BME280;66168;45.478;11.060;2023-12-04T05:53:07;101495.25;;;4.45;61.51
76868;BME280;66168;45.478;11.060;2023-12-04T05:55:34;101496.98;;;4.46;61.53
76868;BME280;66168;45.478;11.060;2023-12-04T05:58:01;101500.84;;;4.48;61.37
76868;BME280;66168;45.478;11.060;2023-12-04T06:00:29;101508.50;;;4.51;61.31
76868;BME280;66168;45.478;11.060;2023-12-04T06:02:56;101512.63;;;4.54;61.22
76868;BME280;66168;45.478;11.060;2023-12-04T06:05:23;101514.45;;;4.56;61.14
76868;BME280;66168;45.478;11.060;2023-12-04T06:07:50;101518.86;;;4.58;60.69
76868;BME280;66168;45.478;11.060;2023-12-04T06:10:17;101515.06;;;4.61;60.63
76868;BME280;66168;45.478;11.060;2023-12-04T06:12:45;101523.26;;;4.67;60.38
76868;BME280;66168;45.478;11.060;2023-12-04T06:15:12;101523.35;;;4.68;60.48
76868;BME280;66168;45.478;11.060;2023-12-04T06:17:39;101527.20;;;4.72;60.32
76868;BME280;66168;45.478;11.060;2023-12-04T06:20:07;101528.82;;;4.74;60.20
76868;BME280;66168;45.478;11.060;2023-12-04T06:22:35;101529.70;;;4.76;60.10
76868;BME280;66168;45.478;11.060;2023-12-04T06:25:02;101523.51;;;4.77;60.09
76868;BME280;66168;45.478;11.060;2023-12-04T06:27:29;101524.83;;;4.78;60.11
76868;BME280;66168;45.478;11.060;2023-12-04T06:29:57;101526.71;;;4.79;59.91
76868;BME280;66168;45.478;11.060;2023-12-04T06:32:25;101525.56;;;4.80;59.84
76868;BME280;66168;45.478;11.060;2023-12-04T06:34:52;101526.25;;;4.83;59.38
76868;BME280;66168;45.478;11.060;2023-12-04T06:37:22;101528.80;;;4.86;58.81
76868;BME280;66168;45.478;11.060;2023-12-04T06:39:50;101527.05;;;4.91;58.65
76868;BME280;66168;45.478;11.060;2023-12-04T06:42:20;101525.18;;;4.94;58.16
76868;BME280;66168;45.478;11.060;2023-12-04T06:44:47;101529.38;;;5.01;58.11
76868;BME280;66168;45.478;11.060;2023-12-04T06:47:17;101533.05;;;5.06;57.77
76868;BME280;66168;45.478;11.060;2023-12-04T06:49:45;101533.04;;;5.10;57.64
76868;BME280;66168;45.478;11.060;2023-12-04T06:52:12;101528.05;;;5.14;57.44
76868;BME280;66168;45.478;11.060;2023-12-04T06:54:39;101532.54;;;5.19;57.07
76868;BME280;66168;45.478;11.060;2023-12-04T06:57:05;101531.56;;;5.25;57.47
76868;BME280;66168;45.478;11.060;2023-12-04T06:59:33;101534.02;;;5.25;58.07
76868;BME280;66168;45.478;11.060;2023-12-04T07:02:00;101539.46;;;5.14;58.95
76868;BME280;66168;45.478;11.060;2023-12-04T07:04:27;101537.82;;;4.97;59.26
76868;BME280;66168;45.478;11.060;2023-12-04T07:06:54;101538.90;;;4.78;60.36
76868;BME280;66168;45.478;11.060;2023-12-04T07:09:21;101537.20;;;4.56;61.72
76868;BME280;66168;45.478;11.060;2023-12-04T07:11:49;101525.67;;;4.47;61.65
76868;BME280;66168;45.478;11.060;2023-12-04T07:14:15;101525.48;;;4.40;62.06
76868;BME280;66168;45.478;11.060;2023-12-04T07:16:42;101520.44;;;4.40;62.59
76868;BME280;66168;45.478;11.060;2023-12-04T07:19:10;101520.70;;;4.29;63.50
76868;BME280;66168;45.478;11.060;2023-12-04T07:21:38;101524.38;;;4.12;63.55
76868;BME280;66168;45.478;11.060;2023-12-04T07:24:06;101528.45;;;4.07;63.30
76868;BME280;66168;45.478;11.060;2023-12-04T07:26:34;101529.66;;;4.03;64.15
76868;BME280;66168;45.478;11.060;2023-12-04T07:29:02;101536.77;;;3.94;64.64
76868;BME280;66168;45.478;11.060;2023-12-04T07:31:30;101537.27;;;3.95;64.46
76868;BME280;66168;45.478;11.060;2023-12-04T07:33:57;101539.86;;;4.00;64.15
76868;BME280;66168;45.478;11.060;2023-12-04T07:36:28;101546.98;;;4.01;64.24
76868;BME280;66168;45.478;11.060;2023-12-04T07:38:55;101552.23;;;4.06;63.63
76868;BME280;66168;45.478;11.060;2023-12-04T07:41:22;101554.50;;;4.13;63.23
76868;BME280;66168;45.478;11.060;2023-12-04T07:43:49;101557.48;;;4.20;63.20
76868;BME280;66168;45.478;11.060;2023-12-04T07:46:16;101555.87;;;4.28;63.14
76868;BME280;66168;45.478;11.060;2023-12-04T07:48:43;101555.23;;;4.34;62.83
76868;BME280;66168;45.478;11.060;2023-12-04T07:51:11;101557.20;;;4.38;62.99
76868;BME280;66168;45.478;11.060;2023-12-04T07:53:38;101552.68;;;4.42;63.18
76868;BME280;66168;45.478;11.060;2023-12-04T07:56:05;101549.48;;;4.48;63.28
76868;BME280;66168;45.478;11.060;2023-12-04T07:58:32;101543.02;;;4.52;63.15
76868;BME280;66168;45.478;11.060;2023-12-04T08:00:59;101540.23;;;4.56;63.17
76868;BME280;66168;45.478;11.060;2023-12-04T08:03:27;101538.51;;;4.60;63.19
76868;BME280;66168;45.478;11.060;2023-12-04T08:05:54;101533.91;;;4.65;62.91
76868;BME280;66168;45.478;11.060;2023-12-04T08:08:21;101537.27;;;4.69;62.75
76868;BME280;66168;45.478;11.060;2023-12-04T08:10:48;101541.44;;;4.73;62.72
76868;BME280;66168;45.478;11.060;2023-12-04T08:13:15;101543.25;;;4.79;62.68
76868;BME280;66168;45.478;11.060;2023-12-04T08:15:44;101545.36;;;4.83;62.71
76868;BME280;66168;45.478;11.060;2023-12-04T08:18:11;101540.11;;;4.87;62.64
76868;BME280;66168;45.478;11.060;2023-12-04T08:20:38;101539.52;;;4.93;62.40
76868;BME280;66168;45.478;11.060;2023-12-04T08:23:07;101543.26;;;4.99;62.09
76868;BME280;66168;45.478;11.060;2023-12-04T08:25:35;101543.45;;;5.03;61.73
76868;BME280;66168;45.478;11.060;2023-12-04T08:28:04;101545.38;;;5.06;61.80
76868;BME280;66168;45.478;11.060;2023-12-04T08:30:32;101545.43;;;5.09;62.29
76868;BME280;66168;45.478;11.060;2023-12-04T08:32:59;101545.45;;;5.11;62.43
76868;BME280;66168;45.478;11.060;2023-12-04T08:35:26;101542.60;;;5.14;62.44
76868;BME280;66168;45.478;11.060;2023-12-04T08:37:53;101540.19;;;5.16;62.67
76868;BME280;66168;45.478;11.060;2023-12-04T08:40:21;101540.53;;;5.20;62.91
76868;BME280;66168;45.478;11.060;2023-12-04T08:42:49;101540.48;;;5.23;62.61
76868;BME280;66168;45.478;11.060;2023-12-04T08:45:16;101532.66;;;5.24;62.25
76868;BME280;66168;45.478;11.060;2023-12-04T08:47:45;101534.80;;;5.28;62.34
76868;BME280;66168;45.478;11.060;2023-12-04T08:50:13;101543.35;;;5.31;61.91
76868;BME280;66168;45.478;11.060;2023-12-04T08:52:40;101540.86;;;5.32;62.25
76868;BME280;66168;45.478;11.060;2023-12-04T08:55:10;101530.74;;;5.26;62.66
76868;BME280;66168;45.478;11.060;2023-12-04T08:57:37;101526.92;;;5.21;62.73
76868;BME280;66168;45.478;11.060;2023-12-04T09:00:04;101510.66;;;5.20;63.11
76868;BME280;66168;45.478;11.060;2023-12-04T09:02:32;101509.63;;;5.22;63.15
76868;BME280;66168;45.478;11.060;2023-12-04T09:04:59;101512.14;;;5.26;63.15
76868;BME280;66168;45.478;11.060;2023-12-04T09:07:26;101504.41;;;5.32;63.11
76868;BME280;66168;45.478;11.060;2023-12-04T09:10:14;101492.39;;;5.40;62.87
76868;BME280;66168;45.478;11.060;2023-12-04T09:13:00;101496.05;;;5.47;62.26
76868;BME280;66168;45.478;11.060;2023-12-04T09:15:27;101497.94;;;5.52;62.04
76868;BME280;66168;45.478;11.060;2023-12-04T09:17:55;101500.34;;;5.55;61.90
76868;BME280;66168;45.478;11.060;2023-12-04T09:20:22;101501.56;;;5.55;62.87
76868;BME280;66168;45.478;11.060;2023-12-04T09:22:49;101502.05;;;5.55;63.19
76868;BME280;66168;45.478;11.060;2023-12-04T09:25:23;101504.77;;;5.52;63.77
76868;BME280;66168;45.478;11.060;2023-12-04T09:27:50;101506.80;;;5.47;63.36
76868;BME280;66168;45.478;11.060;2023-12-04T09:30:17;101503.45;;;5.45;63.91
76868;BME280;66168;45.478;11.060;2023-12-04T09:32:44;101496.10;;;5.44;63.47
76868;BME280;66168;45.478;11.060;2023-12-04T09:35:12;101491.20;;;5.50;63.11
76868;BME280;66168;45.478;11.060;2023-12-04T09:37:39;101488.55;;;5.59;62.85
76868;BME280;66168;45.478;11.060;2023-12-04T09:40:07;101486.21;;;5.68;61.78
76868;BME280;66168;45.478;11.060;2023-12-04T09:42:35;101483.63;;;5.74;61.29
76868;BME280;66168;45.478;11.060;2023-12-04T09:45:03;101489.23;;;5.78;61.01
76868;BME280;66168;45.478;11.060;2023-12-04T09:47:32;101491.81;;;5.82;61.47
76868;BME280;66168;45.478;11.060;2023-12-04T09:50:00;101490.08;;;5.86;61.82
76868;BME280;66168;45.478;11.060;2023-12-04T09:52:28;101485.85;;;5.86;60.81
76868;BME280;66168;45.478;11.060;2023-12-04T09:54:55;101486.10;;;5.83;60.98
76868;BME280;66168;45.478;11.060;2023-12-04T09:57:23;101482.53;;;5.81;60.57
76868;BME280;66168;45.478;11.060;2023-12-04T09:59:52;101468.83;;;5.85;61.19
76868;BME280;66168;45.478;11.060;2023-12-04T10:02:19;101471.38;;;5.91;61.06
76868;BME280;66168;45.478;11.060;2023-12-04T10:04:47;101474.05;;;5.99;61.05
76868;BME280;66168;45.478;11.060;2023-12-04T10:07:14;101468.36;;;6.06;60.78
76868;BME280;66168;45.478;11.060;2023-12-04T10:09:41;101456.43;;;6.12;60.43
76868;BME280;66168;45.478;11.060;2023-12-04T10:12:09;101449.63;;;6.15;60.41
76868;BME280;66168;45.478;11.060;2023-12-04T10:14:36;101444.89;;;6.15;59.80
76868;BME280;66168;45.478;11.060;2023-12-04T10:17:16;101435.27;;;6.14;59.93
76868;BME280;66168;45.478;11.060;2023-12-04T10:19:46;101423.10;;;6.12;60.11
76868;BME280;66168;45.478;11.060;2023-12-04T10:22:13;101402.27;;;6.11;60.43
76868;BME280;66168;45.478;11.060;2023-12-04T10:24:41;101381.36;;;6.08;61.02
76868;BME280;66168;45.478;11.060;2023-12-04T10:27:09;101369.50;;;6.09;61.36
76868;BME280;66168;45.478;11.060;2023-12-04T10:29:47;101355.71;;;6.14;61.22
76868;BME280;66168;45.478;11.060;2023-12-04T10:32:18;101349.15;;;6.15;61.07
76868;BME280;66168;45.478;11.060;2023-12-04T10:34:48;101344.16;;;6.07;62.35
76868;BME280;66168;45.478;11.060;2023-12-04T10:37:15;101343.84;;;5.97;62.90
76868;BME280;66168;45.478;11.060;2023-12-04T10:39:51;101353.72;;;5.83;64.39
76868;BME280;66168;45.478;11.060;2023-12-04T10:42:26;101365.13;;;5.71;64.69
76868;BME280;66168;45.478;11.060;2023-12-04T10:44:58;101365.31;;;5.60;64.84
76868;BME280;66168;45.478;11.060;2023-12-04T10:47:27;101354.77;;;5.52;65.48
76868;BME280;66168;45.478;11.060;2023-12-04T10:49:55;101354.04;;;5.48;65.99
76868;BME280;66168;45.478;11.060;2023-12-04T10:52:23;101358.03;;;5.51;65.62
76868;BME280;66168;45.478;11.060;2023-12-04T10:54:50;101361.63;;;5.54;65.41
76868;BME280;66168;45.478;11.060;2023-12-04T10:57:25;101362.30;;;5.61;65.28
76868;BME280;66168;45.478;11.060;2023-12-04T11:00:02;101364.64;;;5.69;63.90
76868;BME280;66168;45.478;11.060;2023-12-04T11:02:33;101364.42;;;5.73;62.55
76868;BME280;66168;45.478;11.060;2023-12-04T11:05:08;101365.25;;;5.76;62.68
76868;BME280;66168;45.478;11.060;2023-12-04T11:07:45;101361.67;;;5.81;62.45
76868;BME280;66168;45.478;11.060;2023-12-04T11:10:43;101353.84;;;5.77;62.24
76868;BME280;66168;45.478;11.060;2023-12-04T11:13:28;101345.17;;;5.74;62.12
76868;BME280;66168;45.478;11.060;2023-12-04T11:16:01;101346.14;;;5.73;62.31
76868;BME280;66168;45.478;11.060;2023-12-04T11:18:31;101343.49;;;5.71;62.65
76868;BME280;66168;45.478;11.060;2023-12-04T11:21:09;101328.43;;;5.74;62.55
76868;BME280;66168;45.478;11.060;2023-12-04T11:23:38;101317.69;;;5.83;62.67
76868;BME280;66168;45.478;11.060;2023-12-04T11:26:08;101314.96;;;5.97;62.28
76868;BME280;66168;45.478;11.060;2023-12-04T11:28:37;101316.77;;;6.09;61.09
76868;BME280;66168;45.478;11.060;2023-12-04T11:31:07;101315.98;;;6.17;61.16
76868;BME280;66168;45.478;11.060;2023-12-04T11:33:38;101308.56;;;6.30;60.99
76868;BME280;66168;45.478;11.060;2023-12-04T11:36:12;101307.83;;;6.45;60.94
76868;BME280;66168;45.478;11.060;2023-12-04T11:38:46;101302.48;;;6.53;60.66
76868;BME280;66168;45.478;11.060;2023-12-04T11:41:19;101302.73;;;6.53;59.07
76868;BME280;66168;45.478;11.060;2023-12-04T11:43:55;101296.33;;;6.49;58.75
76868;BME280;66168;45.478;11.060;2023-12-04T11:46:24;101294.55;;;6.51;58.82
76868;BME280;66168;45.478;11.060;2023-12-04T11:49:27;101293.65;;;6.57;58.95
76868;BME280;66168;45.478;11.060;2023-12-04T11:51:59;101294.64;;;6.62;59.63
76868;BME280;66168;45.478;11.060;2023-12-04T11:54:27;101294.64;;;6.62;59.79
76868;BME280;66168;45.478;11.060;2023-12-04T11:57:24;101297.86;;;6.64;59.52
76868;BME280;66168;45.478;11.060;2023-12-04T12:00:24;101293.01;;;6.61;58.67
76868;BME280;66168;45.478;11.060;2023-12-04T12:05:39;101279.49;;;6.61;58.76
76868;BME280;66168;45.478;11.060;2023-12-04T12:08:08;101270.64;;;6.61;58.69
76868;BME280;66168;45.478;11.060;2023-12-04T12:10:36;101261.08;;;6.63;58.81
76868;BME280;66168;45.478;11.060;2023-12-04T12:13:04;101261.64;;;6.63;58.80
76868;BME280;66168;45.478;11.060;2023-12-04T12:15:32;101257.92;;;6.59;57.51
76868;BME280;66168;45.478;11.060;2023-12-04T12:18:00;101251.86;;;6.58;58.08
76868;BME280;66168;45.478;11.060;2023-12-04T12:20:27;101247.51;;;6.55;58.75
76868;BME280;66168;45.478;11.060;2023-12-04T12:22:54;101246.02;;;6.54;58.63
76868;BME280;66168;45.478;11.060;2023-12-04T12:25:23;101243.58;;;6.54;58.51
76868;BME280;66168;45.478;11.060;2023-12-04T12:27:50;101241.39;;;6.55;59.46
76868;BME280;66168;45.478;11.060;2023-12-04T12:30:18;101244.59;;;6.55;59.88
76868;BME280;66168;45.478;11.060;2023-12-04T12:32:45;101242.40;;;6.57;60.14
76868;BME280;66168;45.478;11.060;2023-12-04T12:35:12;101249.11;;;6.61;60.78
76868;BME280;66168;45.478;11.060;2023-12-04T12:37:39;101248.33;;;6.62;60.69
76868;BME280;66168;45.478;11.060;2023-12-04T12:40:07;101244.98;;;6.58;60.94
76868;BME280;66168;45.478;11.060;2023-12-04T12:42:37;101239.38;;;6.54;60.35
76868;BME280;66168;45.478;11.060;2023-12-04T12:45:09;101231.80;;;6.48;59.49
76868;BME280;66168;45.478;11.060;2023-12-04T12:47:47;101222.23;;;6.43;59.78
76868;BME280;66168;45.478;11.060;2023-12-04T12:50:15;101223.97;;;6.43;59.60
76868;BME280;66168;45.478;11.060;2023-12-04T12:52:42;101217.75;;;6.42;59.44
76868;BME280;66168;45.478;11.060;2023-12-04T12:55:10;101211.23;;;6.44;59.63
76868;BME280;66168;45.478;11.060;2023-12-04T12:57:37;101205.52;;;6.44;58.94
76868;BME280;66168;45.478;11.060;2023-12-04T13:00:06;101201.56;;;6.45;59.56